General Ignacio P Garcia International Airport
MMHO : rendu visible

Aérodrome :











RETROUVEZ-NOUS SUR...

 
LOGIN :

S'inscrire | Disclaimer

   EN    FR    IT 

 









Légende :    VFR   VFR Marginal   IFR   IFR Intensif   IFR Très Intensif
Visi : 
Plafond : 
>= 8 km
>= 3000ft
5 à 8 km
1000 à 3000 ft
1500m à 5 km
500 à 1000 ft
800 à 1500m
200 à 500 ft
< 800m
< 200 ft
Symboles :   Orages  Brouillard  Fortes neiges  Fortes précipitations  Vent > 20 kt






- Altitude de l'aérodrome : 627 ft
- Code IATA : HMO


MMHO - General Ignacio P Garcia International

DERNIER METAR :
  • 250740Z 32003KT 10SM FEW100 SCT200 14/12 A2998 RMK 8/038 HZY

METARs EXPIRÉS :
  • 250640Z 00000KT 10SM SCT100 SCT200 15/13 A2998 RMK 8/038 HZY
  • 250542Z 19003KT 10SM SCT100 SCT200 16/13 A2998 RMK SLP153 52007 905 8/038 HZY

TAF TAF MMHO
Valide du 25 à 06h jusqu'au 26 à 06h UTC


250451Z 2506/2606 00000KT P6SM BKN100 BKN250
FM251800 23010KT P6SM SCT080 BKN100 OVC250
FM260500 00000KT P6SM BKN250



MET'MAP, la Météo Aéronautique d'un coup d'oeil ! - Copyright ORBIFLY Décembre 2007 - Disclaimer

ORBIFLY MET'MAP TEAM :

Programmation & Développement : Alexandra Zaïnal
Sur une idée originale de : Baudouin d'Aumeries
Assistance à la programmation : Marc-Olivier Méhu
Soutien technique & logistique : Manuel Goepfert

Contact : metmap@orbifly.com




SOURCES & CREDITS :

   NOAA       Earth
Advisory